Time;durP1;ratioP1;P1;durP2;ratioP2;P2;SDS_P1;SDS_P2;PMS_P1;PMS_P2;Temp;Humidity;BMP_temperature;BMP_pressure;BME280_temperature;BME280_humidity;BME280_pressure;Samples;Min_cycle;Max_cycle;Signal;HPM_P1;HPM_P2
2022/06/20 00:01:00;;;;;;;3.22;1.88;;;;;;;18.44;49.53;95012.34;5033402;28;20492;-63
2022/06/20 00:03:32;;;;;;;2.03;1.83;;;;;;;18.44;49.98;95023.00;5044228;28;20232;-66
2022/06/20 00:05:58;;;;;;;2.78;2.10;;;;;;;18.38;50.83;95032.59;5035463;28;20232;-67
2022/06/20 00:08:23;;;;;;;2.70;2.50;;;;;;;18.08;52.80;95019.59;5041607;28;20233;-63
2022/06/20 00:10:49;;;;;;;5.32;2.40;;;;;;;17.33;54.61;95023.00;5062514;28;20264;-62
2022/06/20 00:13:28;;;;;;;2.60;2.40;;;;;;;17.37;54.97;95018.94;5060626;28;20294;-62
2022/06/20 00:15:56;;;;;;;2.63;2.28;;;;;;;17.99;53.63;95019.94;5069290;28;20307;-62
2022/06/20 00:18:22;;;;;;;5.22;2.40;;;;;;;18.15;53.07;95014.31;5064461;28;20221;-66
2022/06/20 00:20:48;;;;;;;4.22;2.53;;;;;;;18.10;53.38;95018.59;5062291;28;20217;-61
2022/06/20 00:23:13;;;;;;;3.55;2.28;;;;;;;18.20;52.96;95017.19;5055620;28;20217;-68
2022/06/20 00:25:40;;;;;;;2.47;2.25;;;;;;;18.17;52.98;95020.22;5057493;28;20212;-68
2022/06/20 00:28:06;;;;;;;5.78;2.80;;;;;;;18.17;53.04;95022.91;5056089;28;20197;-62
2022/06/20 00:30:32;;;;;;;3.47;2.20;;;;;;;18.03;53.71;95008.72;5060180;28;20232;-68
2022/06/20 00:32:58;;;;;;;2.50;2.15;;;;;;;17.92;53.87;95014.59;5055406;28;20224;-62
2022/06/20 00:35:23;;;;;;;5.57;2.35;;;;;;;17.71;54.76;95012.00;5053714;28;20313;-67
2022/06/20 00:37:50;;;;;;;2.92;2.30;;;;;;;17.72;54.60;95013.63;5058218;28;20215;-68
2022/06/20 00:40:35;;;;;;;2.75;2.55;;;;;;;17.97;54.18;95022.81;5062852;28;20210;-67
2022/06/20 00:43:01;;;;;;;3.75;2.60;;;;;;;18.08;53.18;95019.59;5062926;28;20217;-64
2022/06/20 00:45:33;;;;;;;3.13;2.80;;;;;;;18.12;53.19;95016.53;5060644;28;20233;-66
2022/06/20 00:48:05;;;;;;;4.60;2.78;;;;;;;17.83;54.09;95010.47;5060257;28;20217;-67
2022/06/20 00:50:33;;;;;;;3.40;2.50;;;;;;;17.84;54.02;95014.78;5056738;28;20232;-66
2022/06/20 00:53:26;;;;;;;5.15;2.80;;;;;;;17.78;54.33;95008.38;5062028;28;20275;-66
2022/06/20 00:56:04;;;;;;;3.13;2.80;;;;;;;17.60;55.47;95011.53;5024478;28;20276;-65
2022/06/20 00:58:35;;;;;;;5.63;3.22;;;;;;;17.66;55.12;95009.94;5039713;28;20367;-67
2022/06/20 01:01:01;;;;;;;4.32;2.75;;;;;;;17.57;55.37;95009.28;5037695;28;20214;-68
2022/06/20 01:03:33;;;;;;;5.90;2.67;;;;;;;17.64;55.10;95018.13;5022215;28;20226;-68
2022/06/20 01:06:08;;;;;;;6.32;2.90;;;;;;;17.61;54.97;95007.88;5037002;28;20232;-67
2022/06/20 01:08:51;;;;;;;6.40;2.90;;;;;;;17.55;55.36;95011.28;5016677;28;20229;-68
2022/06/20 01:11:22;;;;;;;3.55;2.28;;;;;;;17.56;55.24;95012.09;5003393;28;20226;-64
2022/06/20 01:13:48;;;;;;;4.57;2.85;;;;;;;17.54;55.31;95001.69;5024402;28;20229;-66
2022/06/20 01:16:14;;;;;;;5.32;2.58;;;;;;;17.43;55.38;95002.22;5039558;28;20258;-67
2022/06/20 01:18:46;;;;;;;2.75;2.55;;;;;;;17.41;55.54;94988.31;5038062;28;20573;-66
2022/06/20 01:21:15;;;;;;;3.88;2.40;;;;;;;17.53;54.94;94991.22;5013371;28;20222;-66
2022/06/20 01:23:57;;;;;;;4.40;2.65;;;;;;;17.58;54.40;94989.63;5007301;28;20239;-66
2022/06/20 01:26:50;;;;;;;3.13;2.83;;;;;;;17.52;54.17;94992.25;5015366;28;20225;-63
2022/06/20 01:29:17;;;;;;;6.93;2.92;;;;;;;17.36;55.04;94988.06;4950884;28;20331;-66
2022/06/20 01:31:47;;;;;;;6.03;3.10;;;;;;;17.40;55.05;94981.34;4965310;28;20228;-63
2022/06/20 01:34:15;;;;;;;6.38;3.17;;;;;;;17.41;55.43;94985.66;4984261;28;20266;-64
2022/06/20 01:39:28;;;;;;;4.45;2.78;;;;;;;16.83;58.05;95003.59;5004089;28;20245;-64
2022/06/20 01:44:42;;;;;;;4.97;2.80;;;;;;;17.23;56.73;95003.91;5001514;28;20234;-66
2022/06/20 01:47:08;;;;;;;2.95;2.65;;;;;;;17.29;56.59;94995.16;4977268;28;20242;-66
2022/06/20 01:49:35;;;;;;;4.60;2.92;;;;;;;17.33;56.38;94996.44;4990234;28;20245;-67
2022/06/20 01:52:28;;;;;;;3.95;2.92;;;;;;;16.84;58.49;95006.06;4983548;28;20231;-62
2022/06/20 01:54:59;;;;;;;3.45;2.97;;;;;;;17.03;57.79;95001.13;4977225;28;20270;-66
2022/06/20 01:57:30;;;;;;;3.88;2.85;;;;;;;17.06;57.78;95008.72;4985529;28;20222;-64
2022/06/20 02:00:16;;;;;;;3.42;3.13;;;;;;;17.03;57.80;94999.28;5001497;28;20223;-66
2022/06/20 02:02:45;;;;;;;4.93;2.90;;;;;;;17.02;57.69;94992.31;4978396;28;20222;-67
2022/06/20 02:05:19;;;;;;;5.10;3.00;;;;;;;16.98;58.06;95004.34;4991033;28;20227;-65
2022/06/20 02:07:46;;;;;;;5.28;2.90;;;;;;;16.93;58.27;94993.47;5062916;28;20205;-67
2022/06/20 02:10:25;;;;;;;3.50;2.88;;;;;;;17.00;58.14;94999.66;5065265;28;20208;-66
2022/06/20 02:12:53;;;;;;;4.65;3.17;;;;;;;16.87;58.88;94999.56;5071071;28;20252;-63
2022/06/20 02:15:22;;;;;;;4.95;3.00;;;;;;;16.78;58.80;94998.03;5057201;28;20225;-68
2022/06/20 02:17:50;;;;;;;4.68;3.42;;;;;;;16.77;58.73;94999.88;5053951;28;20247;-67
2022/06/20 02:20:23;;;;;;;4.85;3.00;;;;;;;16.85;58.36;94996.25;5053508;28;20226;-69
2022/06/20 02:22:50;;;;;;;5.95;3.55;;;;;;;16.88;58.15;94995.88;5056118;28;20208;-64
2022/06/20 02:25:21;;;;;;;4.25;2.97;;;;;;;16.74;58.33;95001.03;5060911;28;20273;-67
2022/06/20 02:27:51;;;;;;;4.70;3.15;;;;;;;16.80;58.18;94999.47;5057944;28;20278;-65
2022/06/20 02:30:16;;;;;;;4.28;2.85;;;;;;;16.67;58.32;95004.63;5054707;28;20218;-67
2022/06/20 02:32:49;;;;;;;6.38;2.97;;;;;;;16.52;58.76;94999.41;5051995;28;20221;-65
2022/06/20 02:35:19;;;;;;;5.18;2.95;;;;;;;16.55;58.04;95004.31;5054223;28;20340;-65
2022/06/20 02:37:46;;;;;;;4.53;2.97;;;;;;;16.54;58.02;94992.03;5059702;28;20212;-68
2022/06/20 02:40:16;;;;;;;6.60;3.17;;;;;;;16.51;57.99;94993.25;5063916;28;20252;-64
2022/06/20 02:42:44;;;;;;;4.25;2.95;;;;;;;16.56;57.80;94995.34;5052515;28;20221;-66
2022/06/20 02:45:11;;;;;;;3.72;3.05;;;;;;;16.63;57.17;94996.25;5051596;28;20225;-62
2022/06/20 02:47:59;;;;;;;5.55;3.17;;;;;;;16.73;56.86;94995.91;5059042;28;20240;-67
2022/06/20 02:50:32;;;;;;;3.95;3.08;;;;;;;16.60;57.09;94988.66;5052364;28;20233;-66
2022/06/20 02:53:06;;;;;;;3.45;3.10;;;;;;;16.51;57.38;94984.47;5042254;28;20217;-62
2022/06/20 02:55:35;;;;;;;5.90;3.80;;;;;;;16.56;57.02;94982.06;5055622;28;20209;-65
2022/06/20 02:58:11;;;;;;;4.78;4.07;;;;;;;16.36;57.52;94981.88;5075460;28;20232;-62
2022/06/20 03:00:48;;;;;;;6.50;3.58;;;;;;;16.25;57.62;94985.84;5061210;28;20224;-65
2022/06/20 03:03:20;;;;;;;6.38;3.88;;;;;;;16.26;57.65;94986.66;5057359;28;20254;-66
2022/06/20 03:05:45;;;;;;;4.32;3.15;;;;;;;16.35;56.25;94984.72;5077527;28;20232;-65
2022/06/20 03:08:14;;;;;;;3.25;2.92;;;;;;;16.29;56.21;94973.84;5063862;28;20687;-65
2022/06/20 03:10:46;;;;;;;2.97;2.78;;;;;;;16.45;55.55;94979.91;5057327;28;20209;-65
2022/06/20 03:13:12;;;;;;;3.00;2.70;;;;;;;16.43;55.46;94984.59;5077114;28;20281;-67
2022/06/20 03:15:39;;;;;;;3.60;2.53;;;;;;;16.47;55.47;94988.53;5066399;28;20232;-68
2022/06/20 03:18:06;;;;;;;5.43;2.53;;;;;;;16.45;55.41;94985.22;5062935;28;20306;-67
2022/06/20 03:20:33;;;;;;;3.60;2.40;;;;;;;16.40;55.42;94982.31;5061153;28;20275;-65
2022/06/20 03:23:06;;;;;;;5.68;2.85;;;;;;;16.21;56.13;94975.78;5057477;28;20232;-68
2022/06/20 03:25:32;;;;;;;3.38;2.45;;;;;;;16.44;55.55;94976.44;5056411;28;20204;-64
2022/06/20 03:27:58;;;;;;;4.13;2.72;;;;;;;16.50;55.38;94988.16;5063197;28;20217;-64
2022/06/20 03:30:23;;;;;;;3.92;2.97;;;;;;;16.61;54.99;94990.28;5065554;28;20244;-67
2022/06/20 03:32:49;;;;;;;5.55;2.83;;;;;;;16.50;55.25;94988.97;5062421;28;20221;-67
2022/06/20 03:35:15;;;;;;;6.45;2.63;;;;;;;16.31;55.93;94985.09;5066247;28;20256;-67
2022/06/20 03:37:41;;;;;;;4.82;2.80;;;;;;;16.32;56.02;94986.72;5057325;28;20216;-66
2022/06/20 03:40:06;;;;;;;3.83;2.70;;;;;;;16.35;56.03;94982.06;5062271;28;20201;-64
2022/06/20 03:42:32;;;;;;;4.13;2.85;;;;;;;16.48;55.41;94996.28;5055615;28;20290;-67
2022/06/20 03:44:59;;;;;;;5.63;2.58;;;;;;;16.47;55.01;94989.34;5057613;28;20228;-67
2022/06/20 03:47:51;;;;;;;5.97;2.70;;;;;;;16.41;55.48;94991.91;5056988;28;20287;-66
2022/06/20 03:50:24;;;;;;;4.03;3.10;;;;;;;16.42;55.74;94990.91;5059890;28;20232;-66
2022/06/20 03:53:13;;;;;;;5.97;2.97;;;;;;;16.40;57.02;94992.94;5057699;28;20211;-64
2022/06/20 03:56:01;;;;;;;4.18;3.85;;;;;;;16.44;57.03;94995.03;5018846;28;20521;-67
2022/06/20 03:58:41;;;;;;;4.47;4.10;;;;;;;16.51;56.58;94997.75;5034632;28;20225;-63
2022/06/20 04:01:16;;;;;;;4.15;3.58;;;;;;;16.45;56.39;95003.81;5019340;28;20225;-61
2022/06/20 04:03:46;;;;;;;4.60;3.60;;;;;;;16.58;55.96;95005.78;5020789;28;20217;-66
2022/06/20 04:06:25;;;;;;;3.60;3.33;;;;;;;16.52;55.32;95002.88;5038023;28;20221;-65
2022/06/20 04:12:01;;;;;;;4.20;3.28;;;;;;;16.74;54.81;94998.38;5036850;28;20248;-68
2022/06/20 04:14:52;;;;;;;3.83;3.47;;;;;;;16.85;54.28;94993.59;5020944;28;20245;-68
2022/06/20 04:20:08;;;;;;;3.85;3.28;;;;;;;16.95;54.30;94991.44;5033722;28;20404;-66
2022/06/20 04:22:39;;;;;;;5.68;3.40;;;;;;;17.36;52.64;94975.59;5035856;28;20213;-65
2022/06/20 04:25:26;;;;;;;6.43;4.03;;;;;;;17.20;53.34;94990.00;5024976;28;20360;-64
2022/06/20 04:27:58;;;;;;;7.32;3.88;;;;;;;17.12;53.55;94987.50;5022221;28;20228;-66
2022/06/20 04:30:41;;;;;;;4.18;3.78;;;;;;;17.00;54.03;94983.72;5036618;28;20226;-65
2022/06/20 04:33:15;;;;;;;6.45;4.03;;;;;;;17.04;54.28;94979.66;5046353;28;20228;-65
2022/06/20 04:36:05;;;;;;;4.32;3.90;;;;;;;17.11;54.19;94979.72;5058651;28;20216;-62
2022/06/20 04:38:38;;;;;;;4.68;3.90;;;;;;;17.19;54.23;94985.72;5053221;28;20233;-64
2022/06/20 04:41:41;;;;;;;6.90;3.72;;;;;;;17.25;54.71;94985.94;5063476;28;20246;-67
2022/06/20 04:44:16;;;;;;;6.60;3.80;;;;;;;17.28;54.82;94988.22;5026570;28;20279;-62
2022/06/20 04:46:49;;;;;;;5.18;4.28;;;;;;;17.32;54.24;94981.50;5025852;28;20205;-66
2022/06/20 04:49:16;;;;;;;7.22;4.25;;;;;;;17.48;53.53;94973.22;5020487;28;20224;-68
2022/06/20 04:51:45;;;;;;;5.18;4.45;;;;;;;17.46;53.67;94977.09;5017635;28;20241;-63
2022/06/20 04:54:15;;;;;;;6.40;4.28;;;;;;;17.49;53.80;94972.22;5021646;28;20674;-69
2022/06/20 04:56:42;;;;;;;5.75;4.95;;;;;;;17.50;53.55;94965.88;5047380;28;20275;-66
2022/06/20 04:59:17;;;;;;;6.43;4.53;;;;;;;17.56;53.72;94962.44;5027186;28;20229;-67
2022/06/20 05:01:44;;;;;;;5.65;4.38;;;;;;;17.69;53.26;94961.66;5022069;28;20209;-65
2022/06/20 05:04:31;;;;;;;5.03;4.38;;;;;;;17.71;53.42;94958.81;5022043;28;20288;-63
2022/06/20 05:07:01;;;;;;;4.68;4.10;;;;;;;17.41;53.39;94959.88;5018176;28;20228;-65
2022/06/20 05:09:41;;;;;;;5.10;4.30;;;;;;;17.48;53.19;94962.59;5048159;28;20268;-68
2022/06/20 05:12:19;;;;;;;9.32;4.10;;;;;;;17.47;53.49;94955.63;5016390;28;20243;-62
2022/06/20 05:15:03;;;;;;;5.60;4.32;;;;;;;17.54;53.83;94961.00;5021402;28;20245;-69
2022/06/20 05:17:31;;;;;;;5.28;4.25;;;;;;;17.67;52.48;94971.69;5049579;28;20226;-65
2022/06/20 05:20:07;;;;;;;7.88;3.92;;;;;;;17.71;52.33;94970.28;5039884;28;20224;-67
2022/06/20 05:22:38;;;;;;;5.82;4.00;;;;;;;17.78;52.19;94968.47;5059672;28;20366;-66
2022/06/20 05:25:07;;;;;;;5.47;3.95;;;;;;;17.85;52.50;94972.03;5052099;28;20233;-69
2022/06/20 05:27:52;;;;;;;6.13;4.30;;;;;;;17.84;53.04;94978.34;5080527;28;20224;-66
2022/06/20 05:30:22;;;;;;;6.43;3.90;;;;;;;17.80;53.87;94973.63;5049931;28;20700;-67
2022/06/20 05:33:22;;;;;;;4.70;3.28;;;;;;;18.07;52.06;94963.94;5052898;28;20275;-65
2022/06/20 05:36:00;;;;;;;6.97;3.40;;;;;;;18.19;50.89;94964.16;5018079;28;20233;-71
2022/06/20 05:38:50;;;;;;;4.95;3.53;;;;;;;18.09;51.70;94967.19;5050019;28;20228;-65
2022/06/20 05:41:17;;;;;;;5.53;3.25;;;;;;;18.17;51.77;94969.69;5038309;28;20309;-72
2022/06/20 05:43:42;;;;;;;8.05;3.53;;;;;;;18.31;51.46;94962.56;5035915;28;20358;-69
2022/06/20 05:46:15;;;;;;;7.10;3.13;;;;;;;18.32;50.87;94961.53;5024692;28;20213;-66
2022/06/20 05:48:53;;;;;;;5.07;2.85;;;;;;;18.41;49.77;94965.66;5035596;28;20256;-66
2022/06/20 05:51:22;;;;;;;3.78;2.97;;;;;;;18.45;49.61;94966.09;5021048;28;20267;-69
2022/06/20 05:54:01;;;;;;;3.70;3.38;;;;;;;18.46;49.79;94971.19;5032873;28;20224;-68
2022/06/20 05:56:44;;;;;;;4.28;3.10;;;;;;;18.50;49.97;94968.97;5025294;28;20279;-66
2022/06/20 05:59:25;;;;;;;4.40;2.90;;;;;;;18.51;50.18;94973.25;5023379;28;20228;-67
2022/06/20 06:01:54;;;;;;;7.15;3.30;;;;;;;18.49;51.25;94967.31;5021196;28;20194;-65
2022/06/20 06:04:22;;;;;;;4.78;3.60;;;;;;;18.54;50.82;94964.03;5024815;28;20197;-66
2022/06/20 06:06:54;;;;;;;5.85;3.50;;;;;;;18.71;50.60;94966.13;5034762;28;20229;-66
2022/06/20 06:09:54;;;;;;;3.45;3.15;;;;;;;18.60;51.11;94955.25;5046614;28;20218;-66
2022/06/20 06:12:38;;;;;;;4.80;3.63;;;;;;;18.69;51.08;94960.19;4918837;28;20249;-65
2022/06/20 06:15:32;;;;;;;6.88;3.47;;;;;;;18.60;50.80;94958.72;4967685;28;20643;-66
2022/06/20 06:18:03;;;;;;;7.65;3.70;;;;;;;18.83;50.45;94944.22;4970932;28;20789;-67
2022/06/20 06:20:31;;;;;;;5.07;3.80;;;;;;;19.01;50.25;94948.97;4960470;28;20227;-66
2022/06/20 06:23:02;;;;;;;8.57;4.10;;;;;;;19.08;49.67;94952.41;4955542;28;20232;-64
2022/06/20 06:25:33;;;;;;;8.15;4.75;;;;;;;19.24;49.04;94952.00;4958427;28;20247;-64
2022/06/20 06:28:06;;;;;;;44.35;7.30;;;;;;;19.29;48.57;94946.88;4971999;28;20278;-66
2022/06/20 06:30:40;;;;;;;7.35;5.13;;;;;;;19.12;49.56;94949.16;4965944;28;20254;-67
2022/06/20 06:33:20;;;;;;;18.40;5.80;;;;;;;19.10;49.90;94942.38;4957073;28;20228;-68
2022/06/20 06:35:56;;;;;;;8.93;8.02;;;;;;;19.28;49.90;94939.09;4958704;28;20587;-65
2022/06/20 06:38:32;;;;;;;6.47;4.22;;;;;;;19.38;49.91;94937.63;4963333;28;20722;-61
2022/06/20 06:41:00;;;;;;;7.03;4.45;;;;;;;19.40;49.69;94932.06;4974796;28;20235;-61
2022/06/20 06:43:44;;;;;;;5.90;4.50;;;;;;;19.48;49.90;94929.19;4979006;28;20215;-64
2022/06/20 06:46:15;;;;;;;5.63;3.75;;;;;;;19.81;48.28;94930.97;4983767;28;20235;-63
2022/06/20 06:49:16;;;;;;;5.47;3.72;;;;;;;19.75;47.95;94927.31;5001823;28;20232;-64
2022/06/20 06:51:51;;;;;;;4.82;3.35;;;;;;;19.68;47.47;94915.84;4998960;28;20234;-66
2022/06/20 06:54:26;;;;;;;6.55;3.30;;;;;;;19.65;47.47;94921.56;4985091;28;20249;-62
2022/06/20 06:57:08;;;;;;;5.53;3.10;;;;;;;19.67;47.90;94911.50;5007043;28;20213;-62
2022/06/20 06:59:50;;;;;;;5.88;3.85;;;;;;;19.82;48.08;94909.41;5019606;28;20224;-62
2022/06/20 07:02:23;;;;;;;8.27;3.63;;;;;;;19.88;47.88;94906.94;5022319;28;20297;-68
2022/06/20 07:05:05;;;;;;;4.13;3.05;;;;;;;19.93;47.73;94904.44;5005052;28;20201;-66
2022/06/20 07:08:01;;;;;;;3.55;3.08;;;;;;;19.97;47.42;94897.66;5001934;28;20250;-65
2022/06/20 07:10:58;;;;;;;4.72;3.63;;;;;;;20.09;46.96;94887.94;5019148;28;20230;-68
2022/06/20 07:13:27;;;;;;;5.97;3.45;;;;;;;20.15;46.64;94892.41;5001263;28;20280;-68
2022/06/20 07:15:57;;;;;;;5.15;3.30;;;;;;;20.18;46.30;94886.66;4999284;28;20226;-67
2022/06/20 07:18:43;;;;;;;6.35;3.35;;;;;;;20.27;45.91;94889.91;4999906;28;20223;-67
2022/06/20 07:21:18;;;;;;;4.47;3.33;;;;;;;20.28;45.57;94889.66;5016404;28;20312;-70
2022/06/20 07:23:48;;;;;;;5.63;3.30;;;;;;;20.34;46.07;94884.50;5014456;28;20213;-67
2022/06/20 07:26:17;;;;;;;5.13;3.47;;;;;;;20.40;46.72;94879.13;4999357;28;20354;-65
2022/06/20 07:28:48;;;;;;;8.07;3.90;;;;;;;20.50;45.94;94873.28;5038219;28;20213;-65
2022/06/20 07:31:20;;;;;;;4.82;4.28;;;;;;;20.35;46.46;94875.47;5069480;28;20212;-64
2022/06/20 07:33:49;;;;;;;6.00;4.70;;;;;;;20.33;47.03;94880.19;5071366;28;20229;-65
2022/06/20 07:36:20;;;;;;;9.38;4.93;;;;;;;20.40;47.42;94884.47;5053972;28;20218;-68
2022/06/20 07:38:58;;;;;;;6.15;4.60;;;;;;;20.38;47.07;94880.38;5053767;28;20239;-64
2022/06/20 07:41:37;;;;;;;7.43;5.05;;;;;;;20.52;46.84;94891.78;5049614;28;20224;-67
2022/06/20 07:44:14;;;;;;;9.80;5.28;;;;;;;20.59;47.07;94884.56;5070368;28;20213;-66
2022/06/20 07:46:50;;;;;;;8.40;4.88;;;;;;;20.72;46.49;94889.00;5069878;28;20236;-65
2022/06/20 07:49:20;;;;;;;6.85;4.85;;;;;;;20.77;46.63;94887.31;5059509;28;20428;-62
2022/06/20 07:51:49;;;;;;;6.95;4.57;;;;;;;20.84;46.78;94884.56;5057817;28;20231;-70
2022/06/20 07:54:24;;;;;;;6.68;4.50;;;;;;;20.94;46.51;94887.56;5054838;28;20289;-64
2022/06/20 07:57:15;;;;;;;8.45;4.78;;;;;;;20.99;45.65;94878.91;5053051;28;20350;-65
2022/06/20 07:59:53;;;;;;;6.97;4.15;;;;;;;20.94;44.22;94876.88;5032880;28;20220;-65
2022/06/20 08:02:47;;;;;;;5.40;3.95;;;;;;;21.05;43.85;94873.47;5039667;28;20225;-62
2022/06/20 08:05:18;;;;;;;6.90;4.45;;;;;;;21.15;43.83;94865.78;5041823;28;20240;-65
2022/06/20 08:07:51;;;;;;;6.63;4.20;;;;;;;21.22;44.80;94871.03;5038850;28;20248;-65
2022/06/20 08:10:29;;;;;;;7.03;4.78;;;;;;;21.20;45.71;94872.31;5023136;28;20669;-69
2022/06/20 08:13:04;;;;;;;7.25;4.18;;;;;;;21.23;45.15;94872.69;5019396;28;20233;-70
2022/06/20 08:15:39;;;;;;;3.50;3.20;;;;;;;21.15;42.06;94865.78;5019579;28;20232;-67
2022/06/20 08:18:04;;;;;;;7.20;3.70;;;;;;;21.26;41.73;94861.56;5035072;28;20232;-62
2022/06/20 08:20:35;;;;;;;3.45;2.60;;;;;;;21.28;41.78;94858.66;5034778;28;20221;-69
2022/06/20 08:23:12;;;;;;;2.88;2.60;;;;;;;21.32;41.64;94854.50;5038002;28;20253;-63
2022/06/20 08:25:46;;;;;;;4.72;3.10;;;;;;;21.52;43.35;94859.66;5016869;28;20233;-65
2022/06/20 08:28:19;;;;;;;4.78;3.10;;;;;;;21.57;43.11;94863.31;5019206;28;20303;-66
2022/06/20 08:30:52;;;;;;;5.90;3.20;;;;;;;21.55;43.36;94865.38;5015976;28;20826;-66
2022/06/20 08:33:24;;;;;;;5.30;3.20;;;;;;;21.57;41.82;94857.97;5034837;28;20306;-64
2022/06/20 08:36:18;;;;;;;3.08;2.75;;;;;;;21.68;42.13;94858.22;5017158;28;20223;-69
2022/06/20 08:38:48;;;;;;;4.22;2.53;;;;;;;21.82;41.85;94857.03;5050713;28;20283;-65
2022/06/20 08:41:26;;;;;;;2.97;2.55;;;;;;;21.95;41.62;94853.38;5059418;28;20301;-62
2022/06/20 08:44:01;;;;;;;3.50;2.20;;;;;;;22.11;39.68;94843.91;5055568;28;20648;-68
2022/06/20 08:46:45;;;;;;;5.30;2.42;;;;;;;22.12;40.04;94859.72;5057317;28;20200;-69
2022/06/20 08:49:48;;;;;;;3.17;2.58;;;;;;;22.07;39.51;94848.06;5076784;28;20232;-67
2022/06/20 08:53:01;;;;;;;6.07;3.38;;;;;;;22.12;39.45;94846.31;5055235;28;20235;-66
2022/06/20 08:56:02;;;;;;;3.78;2.80;;;;;;;22.19;38.80;94854.31;5049497;28;20220;-64
2022/06/20 08:58:37;;;;;;;4.13;2.58;;;;;;;22.14;37.72;94849.59;5035334;28;20287;-66
2022/06/20 09:01:33;;;;;;;3.65;2.47;;;;;;;22.24;36.70;94851.78;5027577;28;20315;-65
2022/06/20 09:04:24;;;;;;;4.55;2.38;;;;;;;22.23;36.84;94853.59;5026495;28;20229;-65
2022/06/20 09:07:26;;;;;;;5.38;3.03;;;;;;;22.24;37.50;94846.41;5025014;28;20308;-68
2022/06/20 09:10:12;;;;;;;1.88;1.75;;;;;;;22.25;33.41;94837.31;5017677;28;20220;-66
2022/06/20 09:12:52;;;;;;;7.10;2.60;;;;;;;22.35;34.14;94840.25;5038264;28;20316;-65
2022/06/20 09:15:20;;;;;;;2.38;1.95;;;;;;;22.49;35.21;94832.84;5036781;28;20279;-63
2022/06/20 09:17:51;;;;;;;2.75;1.80;;;;;;;22.53;34.36;94835.84;5021496;28;20232;-68
2022/06/20 09:20:35;;;;;;;2.83;1.80;;;;;;;22.60;31.79;94829.34;5035200;28;20416;-70
2022/06/20 09:23:13;;;;;;;4.32;1.90;;;;;;;22.78;31.77;94820.41;5020612;28;20286;-65
2022/06/20 09:26:22;;;;;;;2.88;2.00;;;;;;;22.78;31.80;94816.91;5040399;28;20216;-68
2022/06/20 09:29:10;;;;;;;1.98;1.80;;;;;;;22.74;32.63;94813.84;5024371;28;20270;-67
2022/06/20 09:31:53;;;;;;;2.58;2.10;;;;;;;22.84;32.72;94808.75;5018856;28;20267;-67
2022/06/20 09:34:37;;;;;;;2.22;1.85;;;;;;;22.98;33.08;94811.22;5017747;28;20209;-65
2022/06/20 09:37:08;;;;;;;3.78;2.05;;;;;;;23.06;32.69;94810.84;5017017;28;20240;-66
2022/06/20 09:39:49;;;;;;;6.25;2.50;;;;;;;23.24;32.97;94813.41;5041049;28;20213;-64
2022/06/20 09:42:39;;;;;;;3.08;2.40;;;;;;;23.40;34.44;94809.19;5032897;28;20217;-65
2022/06/20 09:45:14;;;;;;;2.03;1.83;;;;;;;23.38;31.53;94813.16;5046992;28;20267;-69
2022/06/20 09:48:00;;;;;;;1.80;1.70;;;;;;;23.47;31.36;94823.28;5059194;28;20792;-68
2022/06/20 09:50:42;;;;;;;3.45;2.05;;;;;;;23.48;31.35;94811.50;5051883;28;20229;-67
2022/06/20 09:53:34;;;;;;;2.42;1.67;;;;;;;23.77;29.08;94819.63;5050654;28;20220;-69
2022/06/20 09:56:30;;;;;;;5.68;2.33;;;;;;;23.83;29.80;94820.53;5051445;28;20220;-67
2022/06/20 09:59:33;;;;;;;2.20;1.80;;;;;;;24.02;29.96;94816.59;5053546;28;20573;-68
2022/06/20 10:02:20;;;;;;;1.75;1.65;;;;;;;24.06;30.13;94807.00;5047056;28;20654;-65
2022/06/20 10:04:59;;;;;;;3.13;1.95;;;;;;;24.27;30.42;94805.50;5052823;28;20247;-68
2022/06/20 10:07:41;;;;;;;2.13;1.83;;;;;;;24.38;28.74;94812.69;5055237;28;20211;-69
2022/06/20 10:10:13;;;;;;;2.55;1.92;;;;;;;24.35;29.59;94796.22;5070296;28;20291;-69
2022/06/20 10:12:46;;;;;;;2.20;1.55;;;;;;;24.56;29.45;94797.41;5051225;28;20228;-65
2022/06/20 10:15:22;;;;;;;1.83;1.63;;;;;;;24.48;27.94;94792.44;5059504;28;20275;-69
2022/06/20 10:18:02;;;;;;;2.13;1.73;;;;;;;24.61;28.61;94806.34;5059425;28;20319;-64
2022/06/20 10:20:50;;;;;;;2.33;2.13;;;;;;;24.74;28.01;94804.41;5054130;28;20255;-67
2022/06/20 10:23:38;;;;;;;2.42;1.60;;;;;;;24.87;27.52;94788.75;5052780;28;20248;-65
2022/06/20 10:26:13;;;;;;;2.42;1.73;;;;;;;24.96;27.61;94791.00;5052773;28;20248;-65
2022/06/20 10:28:48;;;;;;;4.80;1.90;;;;;;;25.07;29.32;94799.00;5056806;28;20209;-65
2022/06/20 10:31:41;;;;;;;2.00;1.80;;;;;;;25.11;25.64;94799.31;5056877;28;20209;-67
2022/06/20 10:34:22;;;;;;;2.28;1.80;;;;;;;24.94;29.01;94787.75;5037524;28;20229;-62
2022/06/20 10:37:12;;;;;;;1.83;1.63;;;;;;;25.20;25.82;94784.38;5041673;28;20264;-66
2022/06/20 10:40:26;;;;;;;2.15;1.60;;;;;;;25.23;25.80;94777.69;5056999;28;20227;-68
2022/06/20 10:43:11;;;;;;;3.97;1.90;;;;;;;25.26;26.80;94778.03;5021318;28;20260;-64
2022/06/20 10:45:52;;;;;;;3.72;1.80;;;;;;;25.40;28.04;94780.34;5039560;28;20853;-63
2022/06/20 10:48:31;;;;;;;2.42;2.22;;;;;;;25.74;28.56;94775.63;5030455;28;20237;-63
2022/06/20 10:51:11;;;;;;;3.30;1.80;;;;;;;25.70;26.60;94774.50;5028056;28;20253;-65
2022/06/20 10:53:36;;;;;;;1.90;1.80;;;;;;;25.83;26.16;94774.13;5024675;28;20869;-67
2022/06/20 10:56:12;;;;;;;2.50;1.55;;;;;;;25.88;23.69;94765.31;5040366;28;21451;-65
2022/06/20 10:58:45;;;;;;;2.63;1.73;;;;;;;25.88;25.04;94774.22;5024278;28;20224;-67
2022/06/20 11:01:37;;;;;;;2.10;1.80;;;;;;;26.03;25.15;94761.94;5026818;28;20204;-65
2022/06/20 11:04:34;;;;;;;1.83;1.70;;;;;;;26.24;23.26;94752.97;4995103;28;20789;-66
2022/06/20 11:07:05;;;;;;;1.55;1.40;;;;;;;26.17;23.73;94752.41;5005437;28;20226;-65
2022/06/20 11:10:12;;;;;;;1.55;1.45;;;;;;;25.95;22.70;94745.19;5004653;28;20261;-71
2022/06/20 11:12:37;;;;;;;1.77;1.67;;;;;;;26.01;25.76;94737.13;5000827;28;20234;-70
2022/06/20 11:15:12;;;;;;;2.70;1.63;;;;;;;26.33;25.36;94739.84;4998625;28;20249;-65
2022/06/20 11:18:01;;;;;;;3.20;1.58;;;;;;;26.18;24.39;94735.97;4996468;28;20281;-68
2022/06/20 11:20:36;;;;;;;1.70;1.60;;;;;;;26.39;26.21;94734.25;4964223;28;20228;-65
2022/06/20 11:23:16;;;;;;;2.00;1.85;;;;;;;26.59;25.84;94730.09;4963519;28;20269;-66
2022/06/20 11:26:11;;;;;;;1.60;1.50;;;;;;;26.72;24.30;94731.56;4969266;28;20302;-66
2022/06/20 11:28:42;;;;;;;2.85;1.52;;;;;;;26.67;23.27;94735.03;4970218;28;20216;-64
2022/06/20 11:31:16;;;;;;;1.60;1.50;;;;;;;26.66;24.46;94729.91;4964698;28;20220;-67
2022/06/20 11:34:06;;;;;;;2.30;1.45;;;;;;;26.39;24.53;94734.25;4979051;28;20231;-62
2022/06/20 11:36:58;;;;;;;1.95;1.83;;;;;;;26.81;25.13;94730.81;4966802;28;20228;-64
2022/06/20 11:39:55;;;;;;;1.60;1.50;;;;;;;27.17;25.65;94727.53;4996448;28;20253;-67
2022/06/20 11:42:46;;;;;;;2.92;1.48;;;;;;;27.28;24.32;94716.50;5055581;28;20292;-70
2022/06/20 11:45:39;;;;;;;4.20;1.67;;;;;;;27.15;22.58;94714.25;5058678;28;20228;-63
2022/06/20 11:48:17;;;;;;;2.40;1.50;;;;;;;27.20;24.59;94706.22;5069592;28;20366;-68
2022/06/20 11:50:49;;;;;;;1.60;1.50;;;;;;;27.40;24.04;94715.47;5059015;28;20228;-63
2022/06/20 11:53:27;;;;;;;1.60;1.50;;;;;;;27.55;24.99;94710.13;5054662;28;20228;-69
2022/06/20 11:56:03;;;;;;;4.18;2.00;;;;;;;27.69;24.91;94707.72;5062477;28;20208;-67
2022/06/20 11:58:33;;;;;;;1.80;1.70;;;;;;;27.31;23.13;94703.56;5054218;28;20199;-66
2022/06/20 12:01:12;;;;;;;4.25;1.75;;;;;;;27.03;23.49;94686.69;5053026;28;20220;-69
2022/06/20 12:03:53;;;;;;;1.48;1.38;;;;;;;27.05;24.52;94687.22;5054608;28;20671;-68
2022/06/20 12:06:44;;;;;;;3.60;2.00;;;;;;;27.44;26.36;94689.56;5072722;28;20238;-68
2022/06/20 12:09:12;;;;;;;2.17;2.00;;;;;;;27.71;24.94;94690.16;5063331;28;20243;-70
2022/06/20 12:12:12;;;;;;;2.50;1.75;;;;;;;27.93;26.24;94687.28;5068608;28;20228;-68
2022/06/20 12:14:49;;;;;;;3.03;1.50;;;;;;;28.10;24.26;94680.81;5054054;28;20240;-69
2022/06/20 12:17:40;;;;;;;5.20;2.10;;;;;;;28.26;24.92;94679.72;5052852;28;20251;-69
2022/06/20 12:25:52;;;;;;;1.95;1.85;;;;;;;28.85;22.53;94678.31;5052946;28;20209;-67
2022/06/20 12:28:20;;;;;;;1.80;1.52;;;;;;;29.14;21.51;94673.13;5052297;28;20254;-65
2022/06/20 12:31:16;;;;;;;1.50;1.40;;;;;;;29.40;20.68;94664.84;5054421;28;20221;-69
2022/06/20 12:33:46;;;;;;;1.60;1.50;;;;;;;29.39;22.49;94658.63;5069126;28;20235;-66
2022/06/20 12:36:42;;;;;;;1.77;1.67;;;;;;;29.30;21.87;94662.19;5059114;28;20233;-64